createdAt,value
2022-10-05T00:02:18.890Z,11.58
2022-10-05T00:07:24.409Z,11.86
2022-10-05T00:12:30.954Z,11.71
2022-10-05T00:17:34.550Z,11.85
2022-10-05T00:22:38.333Z,11.81
2022-10-05T00:27:42.402Z,11.46
2022-10-05T00:32:47.003Z,11.55
2022-10-05T00:37:55.818Z,11.15
2022-10-05T00:43:41.541Z,11.65
2022-10-05T00:49:14.710Z,11.37
2022-10-05T00:54:33.547Z,11.35
2022-10-05T00:59:57.044Z,11.06
2022-10-05T01:05:16.680Z,10.86
2022-10-05T01:10:38.732Z,11.20
2022-10-05T01:16:01.193Z,10.84
2022-10-05T01:21:35.781Z,10.70
2022-10-05T01:26:48.661Z,10.87
2022-10-05T01:32:33.202Z,10.81
2022-10-05T01:37:58.635Z,10.56
2022-10-05T01:43:14.392Z,9.97
2022-10-05T01:48:36.395Z,9.83
2022-10-05T01:54:05.379Z,10.08
2022-10-05T01:59:32.192Z,10.28
2022-10-05T02:05:06.983Z,9.91
2022-10-05T02:10:36.285Z,9.86
2022-10-05T02:15:45.503Z,10.00
2022-10-05T02:20:52.169Z,9.96
2022-10-05T02:25:57.328Z,9.53
2022-10-05T02:31:38.096Z,9.70
2022-10-05T02:36:42.099Z,9.11
2022-10-05T02:42:01.474Z,9.43
2022-10-05T02:47:19.421Z,9.79
2022-10-05T02:52:25.447Z,9.69
2022-10-05T02:57:37.917Z,9.78
2022-10-05T03:02:51.479Z,9.24
2022-10-05T03:07:58.015Z,9.33
2022-10-05T03:13:04.698Z,9.26
2022-10-05T03:18:30.934Z,9.24
2022-10-05T03:23:51.175Z,9.26
2022-10-05T03:29:17.386Z,8.76
2022-10-05T03:34:33.497Z,8.80
2022-10-05T03:39:41.992Z,9.12
2022-10-05T03:45:23.174Z,9.45
2022-10-05T03:50:33.171Z,8.90
2022-10-05T03:56:12.796Z,9.13
2022-10-05T04:01:22.099Z,9.13
2022-10-05T04:06:28.919Z,8.79
2022-10-05T04:11:45.294Z,9.24
2022-10-05T04:16:56.495Z,8.83
2022-10-05T04:22:10.925Z,9.07
2022-10-05T04:27:23.126Z,8.86
2022-10-05T04:32:29.572Z,8.80
2022-10-05T04:37:42.068Z,8.85
2022-10-05T04:43:03.258Z,8.83
2022-10-05T04:48:16.067Z,8.94
2022-10-05T04:53:31.722Z,8.70
2022-10-05T04:58:48.739Z,8.65
2022-10-05T05:04:15.994Z,8.31
2022-10-05T05:09:57.747Z,8.39
2022-10-05T05:15:18.048Z,7.97
2022-10-05T05:20:21.593Z,8.62
2022-10-05T05:25:54.670Z,8.39
2022-10-05T05:31:41.444Z,8.46
2022-10-05T05:36:55.795Z,8.49
2022-10-05T05:42:02.707Z,8.55
2022-10-05T05:47:20.596Z,8.27
2022-10-05T05:52:31.807Z,8.96
2022-10-05T05:57:44.417Z,9.12
2022-10-05T06:03:05.504Z,7.82
2022-10-05T06:08:19.358Z,9.14
2022-10-05T06:13:34.960Z,8.93
2022-10-05T06:18:43.744Z,9.70
2022-10-05T06:24:01.964Z,9.54
2022-10-05T06:29:12.420Z,10.06
2022-10-05T06:34:53.878Z,10.16
2022-10-05T06:40:01.883Z,9.51
2022-10-05T06:45:10.986Z,10.69
2022-10-05T06:50:30.754Z,10.60
2022-10-05T06:55:42.391Z,11.16
2022-10-05T07:00:55.062Z,11.44
2022-10-05T07:06:00.732Z,11.88
2022-10-05T07:11:13.781Z,11.82
2022-10-05T07:16:29.301Z,12.23
2022-10-05T07:21:50.998Z,12.70
2022-10-05T07:27:13.316Z,13.31
2022-10-05T07:33:01.039Z,13.38
2022-10-05T07:38:33.476Z,13.60
2022-10-05T07:44:05.032Z,14.09
2022-10-05T07:49:34.971Z,12.88
2022-10-05T07:55:07.312Z,13.67
2022-10-05T08:00:21.967Z,14.45
2022-10-05T08:05:27.645Z,14.25
2022-10-05T08:10:52.772Z,14.99
2022-10-05T08:16:04.240Z,15.06
2022-10-05T08:21:17.223Z,15.13
2022-10-05T08:26:50.765Z,15.77
2022-10-05T08:31:59.585Z,16.25
2022-10-05T08:37:19.133Z,16.02
2022-10-05T08:42:22.422Z,17.23
2022-10-05T08:48:03.008Z,18.20
2022-10-05T08:53:08.478Z,18.38
2022-10-05T08:58:37.002Z,17.83
2022-10-05T09:04:18.396Z,18.04
2022-10-05T09:09:27.361Z,19.30
2022-10-05T09:15:01.578Z,19.98
2022-10-05T09:20:23.993Z,21.37
2022-10-05T09:26:20.887Z,20.51
2022-10-05T09:31:27.109Z,19.29
2022-10-05T09:36:48.805Z,18.47
2022-10-05T09:42:20.883Z,18.64
2022-10-05T09:47:46.052Z,19.40
2022-10-05T09:52:51.581Z,18.94
2022-10-05T09:58:30.517Z,18.54
2022-10-05T10:04:08.840Z,18.98
2022-10-05T10:09:27.967Z,18.78
2022-10-05T10:14:34.825Z,19.38
2022-10-05T10:19:49.993Z,20.26
2022-10-05T10:25:20.512Z,18.46
2022-10-05T10:31:00.204Z,19.81
2022-10-05T10:36:18.462Z,21.29
2022-10-05T10:41:41.719Z,20.17
2022-10-05T10:46:45.912Z,19.73
2022-10-05T10:51:58.246Z,20.33
2022-10-05T10:57:11.096Z,19.56
2022-10-05T11:02:22.948Z,19.70
2022-10-05T11:07:25.857Z,19.06
2022-10-05T11:13:09.776Z,18.91
2022-10-05T11:18:25.053Z,19.81
2022-10-05T11:23:40.236Z,18.22
2022-10-05T11:28:58.474Z,19.80
2022-10-05T11:34:13.284Z,19.59
2022-10-05T11:39:50.029Z,19.69
2022-10-05T11:45:23.094Z,20.11
2022-10-05T11:50:44.145Z,20.06
2022-10-05T11:55:58.655Z,19.40
2022-10-05T12:01:15.531Z,18.73
2022-10-05T12:06:22.977Z,19.67
2022-10-05T12:11:41.644Z,19.82
2022-10-05T12:17:23.687Z,19.69
2022-10-05T12:22:39.261Z,19.99
2022-10-05T12:27:47.164Z,19.41
2022-10-05T12:33:17.813Z,20.17
2022-10-05T12:38:43.607Z,20.02
2022-10-05T12:44:20.160Z,20.03
2022-10-05T12:49:47.075Z,20.07
2022-10-05T12:54:58.940Z,20.01
2022-10-05T13:00:19.016Z,19.96
2022-10-05T13:05:44.952Z,20.17
2022-10-05T13:10:54.027Z,19.77
2022-10-05T13:16:06.396Z,20.10
2022-10-05T13:21:36.178Z,20.62
2022-10-05T13:26:45.473Z,20.71
2022-10-05T13:31:55.230Z,20.88
2022-10-05T13:37:13.370Z,21.08
2022-10-05T13:42:38.708Z,21.05
2022-10-05T13:47:50.747Z,20.92
2022-10-05T13:53:20.390Z,20.53
2022-10-05T13:58:33.415Z,20.66
2022-10-05T14:03:38.590Z,20.07
2022-10-05T14:08:52.244Z,20.29
2022-10-05T14:14:05.513Z,20.93
2022-10-05T14:19:08.134Z,21.05
2022-10-05T14:24:50.231Z,20.99
2022-10-05T14:30:20.517Z,20.25
2022-10-05T14:35:28.372Z,19.98
2022-10-05T14:40:36.938Z,19.23
2022-10-05T14:45:56.944Z,18.93
2022-10-05T14:51:04.920Z,18.90
2022-10-05T14:56:35.147Z,18.97
2022-10-05T15:01:50.572Z,18.56
2022-10-05T15:07:20.814Z,18.71
2022-10-05T15:12:31.535Z,18.52
2022-10-05T15:17:48.652Z,18.13
2022-10-05T15:23:13.426Z,18.65
2022-10-05T15:28:35.773Z,18.57
2022-10-05T15:33:47.155Z,18.12
2022-10-05T15:39:19.189Z,17.24
2022-10-05T15:44:40.189Z,18.14
2022-10-05T15:50:04.137Z,18.30
2022-10-05T15:55:20.884Z,18.11
2022-10-05T16:19:26.474Z,17.37
2022-10-05T16:25:35.308Z,17.31
2022-10-05T16:43:55.980Z,16.25
2022-10-05T17:22:28.821Z,13.65
2022-10-05T17:27:56.399Z,14.04
2022-10-05T17:39:57.839Z,13.74
2022-10-05T17:57:46.011Z,13.65
2022-10-05T18:16:57.804Z,13.17
2022-10-05T18:22:16.595Z,13.05
2022-10-05T18:53:15.964Z,12.86
2022-10-05T19:25:44.176Z,12.68
2022-10-05T19:58:02.826Z,12.26
2022-10-05T20:10:30.570Z,12.84
2022-10-05T20:27:56.548Z,12.22
2022-10-05T20:33:29.624Z,12.03
2022-10-05T20:38:56.982Z,11.93
2022-10-05T20:43:59.706Z,11.82
2022-10-05T20:49:03.478Z,12.21
2022-10-05T20:54:08.041Z,12.20
2022-10-05T20:59:10.738Z,11.08
2022-10-05T21:11:09.874Z,11.21
2022-10-05T21:16:14.776Z,11.66
2022-10-05T21:21:18.209Z,11.85
2022-10-05T21:26:21.378Z,11.70
2022-10-05T21:31:24.139Z,11.11
2022-10-05T21:36:31.570Z,12.17
2022-10-05T21:41:34.430Z,11.75
2022-10-05T21:46:38.887Z,11.77
2022-10-05T21:51:41.981Z,11.70
2022-10-05T21:56:51.278Z,11.89
2022-10-05T22:02:19.236Z,11.79
2022-10-05T22:07:22.272Z,11.29
2022-10-05T22:12:25.345Z,11.63
2022-10-05T22:17:32.756Z,10.73
2022-10-05T22:22:35.441Z,11.48
2022-10-05T22:27:38.628Z,11.90
2022-10-05T22:32:44.184Z,11.21
2022-10-05T22:37:47.019Z,11.18
2022-10-05T22:42:49.737Z,11.54
2022-10-05T22:47:52.845Z,11.91
2022-10-05T22:52:55.569Z,12.25
2022-10-05T22:57:58.290Z,11.49
2022-10-05T23:03:00.960Z,12.02
2022-10-05T23:08:03.800Z,12.68
2022-10-05T23:13:07.207Z,11.86
2022-10-05T23:18:10.131Z,11.64
2022-10-05T23:23:12.823Z,12.46
2022-10-05T23:28:15.806Z,12.03
2022-10-05T23:33:18.615Z,11.44
2022-10-05T23:38:21.431Z,12.07
2022-10-05T23:43:24.471Z,12.26
2022-10-05T23:48:27.881Z,11.47
2022-10-05T23:53:31.116Z,11.31
2022-10-05T23:58:33.888Z,12.61
